Time;durP1;ratioP1;P1;durP2;ratioP2;P2;SDS_P1;SDS_P2;PMS_P1;PMS_P2;Temp;Humidity;BMP_temperature;BMP_pressure;BME280_temperature;BME280_humidity;BME280_pressure;Samples;Min_cycle;Max_cycle;Signal;HPM_P1;HPM_P2
2023/02/02 00:01:20;;;;;;;8.37;0.90;;;4.00;99.90;3.80;100041.00;;;;4782117;29;92878;-69
2023/02/02 00:03:47;;;;;;;1.03;0.87;;;4.10;99.90;3.80;100036.00;;;;4781046;29;94082;-69
2023/02/02 00:06:13;;;;;;;4.33;1.10;;;4.00;99.90;3.80;100036.00;;;;4783393;29;93080;-70
2023/02/02 00:08:39;;;;;;;2.23;1.07;;;4.80;99.90;3.90;100039.00;;;;4794698;29;121600;-69
2023/02/02 00:11:05;;;;;;;7.87;0.70;;;4.00;99.90;3.90;100043.00;;;;4779644;29;93440;-69
2023/02/02 00:13:31;;;;;;;1.20;0.73;;;4.10;99.90;3.90;100030.00;;;;4778590;29;106682;-68
2023/02/02 00:15:57;;;;;;;0.97;0.67;;;4.10;99.90;3.90;100021.00;;;;4780408;29;93026;-68
2023/02/02 00:18:22;;;;;;;1.77;0.83;;;4.10;99.90;4.00;100029.00;;;;4780734;29;93902;-70
2023/02/02 00:20:49;;;;;;;1.17;0.80;;;4.10;99.90;4.00;100022.00;;;;4780029;29;121942;-70
2023/02/02 00:23:16;;;;;;;4.10;1.37;;;4.20;99.90;3.90;100003.00;;;;4781251;29;93018;-69
2023/02/02 00:25:42;;;;;;;3.10;0.63;;;4.10;99.90;3.90;100014.00;;;;4783648;29;93035;-69
2023/02/02 00:28:08;;;;;;;1.50;0.70;;;4.10;99.90;3.90;100007.00;;;;4778351;29;123649;-69
2023/02/02 00:30:33;;;;;;;0.60;0.50;;;4.00;99.90;3.80;100010.00;;;;4779410;29;121582;-68
2023/02/02 00:32:59;;;;;;;1.40;0.70;;;4.10;99.90;3.80;100017.00;;;;4779145;29;93421;-68
2023/02/02 00:35:24;;;;;;;5.70;0.90;;;4.10;99.90;3.80;100017.00;;;;4777931;29;96998;-69
2023/02/02 00:37:50;;;;;;;1.33;0.83;;;4.00;99.90;3.80;100018.00;;;;4777750;29;122816;-68
2023/02/02 00:40:16;;;;;;;1.83;0.87;;;4.10;99.90;3.70;100029.00;;;;4778070;29;123723;-67
2023/02/02 00:42:47;;;;;;;0.73;0.50;;;4.00;99.90;3.70;100018.00;;;;4776489;29;100220;-68
2023/02/02 00:45:16;;;;;;;1.37;0.80;;;3.90;99.90;3.60;100009.00;;;;4780896;29;92253;-68
2023/02/02 00:47:48;;;;;;;1.40;0.63;;;3.90;99.90;3.50;100018.00;;;;4780726;29;93183;-68
2023/02/02 00:50:19;;;;;;;1.63;0.80;;;3.70;99.90;3.40;100005.00;;;;4777347;29;93459;-68
2023/02/02 00:52:48;;;;;;;2.57;1.23;;;3.80;99.90;3.40;100003.00;;;;4775691;29;93803;-67
2023/02/02 00:55:15;;;;;;;6.07;1.20;;;3.70;99.90;3.40;100016.00;;;;4780596;29;93026;-68
2023/02/02 00:57:43;;;;;;;2.40;1.30;;;4.10;99.90;3.30;100027.00;;;;4779547;29;97789;-69
2023/02/02 01:00:14;;;;;;;2.37;1.17;;;3.60;99.90;3.30;100019.00;;;;4780075;29;93993;-67
2023/02/02 01:02:40;;;;;;;2.47;1.27;;;3.60;99.90;3.20;100016.00;;;;4780145;29;92935;-67
2023/02/02 01:05:06;;;;;;;0.70;0.70;;;3.40;99.90;3.20;100016.00;;;;4779140;29;93026;-67
2023/02/02 01:07:31;;;;;;;2.30;0.93;;;3.50;99.90;3.20;100019.00;;;;4780520;29;101127;-67
2023/02/02 01:09:57;;;;;;;1.50;0.87;;;3.90;99.90;3.10;100006.00;;;;4780447;29;93652;-68
2023/02/02 01:12:23;;;;;;;2.93;1.30;;;3.30;99.90;3.10;100009.00;;;;4783688;29;109843;-68
2023/02/02 01:14:49;;;;;;;1.40;0.73;;;3.40;99.90;3.10;100016.00;;;;4777473;29;106061;-68
2023/02/02 01:17:15;;;;;;;1.67;0.90;;;3.50;99.90;3.10;100003.00;;;;4777872;29;109477;-68
2023/02/02 01:19:40;;;;;;;0.63;0.60;;;3.40;99.90;3.10;100014.00;;;;4778756;29;123470;-69
2023/02/02 01:22:07;;;;;;;1.43;1.00;;;3.40;99.90;3.10;100010.00;;;;4793015;29;92798;-68
2023/02/02 01:24:33;;;;;;;8.27;1.10;;;3.40;99.90;3.10;100021.00;;;;4781692;29;100243;-67
2023/02/02 01:26:58;;;;;;;0.53;0.23;;;3.40;99.90;3.10;100004.00;;;;4779672;29;122120;-68
2023/02/02 01:29:24;;;;;;;2.63;1.13;;;3.30;99.90;3.10;100005.00;;;;4779695;29;102939;-68
2023/02/02 01:31:50;;;;;;;2.30;0.83;;;3.30;99.90;3.20;99997.00;;;;4778834;29;111559;-67
2023/02/02 01:34:15;;;;;;;4.33;0.60;;;3.30;99.90;3.20;100001.00;;;;4780290;29;108010;-67
2023/02/02 01:36:41;;;;;;;1.10;0.70;;;3.40;99.90;3.30;100002.00;;;;4779414;29;122210;-68
2023/02/02 01:39:07;;;;;;;1.13;0.90;;;3.30;99.90;3.40;100005.00;;;;4779212;29;101351;-67
2023/02/02 01:41:33;;;;;;;0.50;0.50;;;3.50;99.90;3.40;99999.00;;;;4781915;29;94008;-68
2023/02/02 01:44:05;;;;;;;3.83;1.10;;;3.60;99.90;3.50;99990.00;;;;4779960;29;100925;-68
2023/02/02 01:46:34;;;;;;;4.47;1.07;;;3.70;99.90;3.50;99994.00;;;;4780676;29;92913;-68
2023/02/02 01:49:11;;;;;;;0.80;0.67;;;4.80;99.90;3.60;100000.00;;;;4778636;29;92777;-68
2023/02/02 01:51:52;;;;;;;6.70;1.50;;;3.80;99.90;3.60;99997.00;;;;4795184;29;93172;-68
2023/02/02 01:54:24;;;;;;;2.10;0.67;;;3.80;99.90;3.70;99996.00;;;;4794232;29;92870;-68
2023/02/02 01:56:56;;;;;;;6.37;0.50;;;3.90;99.90;3.80;100011.00;;;;4778106;29;101342;-69
2023/02/02 01:59:23;;;;;;;0.90;0.73;;;3.90;99.90;3.80;100007.00;;;;4778909;29;102866;-69
2023/02/02 02:01:51;;;;;;;1.77;0.73;;;4.00;99.90;3.80;100007.00;;;;4778958;29;111312;-70
2023/02/02 02:04:17;;;;;;;9.43;0.60;;;4.00;99.90;3.90;100016.00;;;;4777752;29;93165;-69
2023/02/02 02:06:44;;;;;;;1.47;1.30;;;4.10;99.90;3.90;100017.00;;;;4778834;29;123234;-70
2023/02/02 02:09:09;;;;;;;2.00;0.40;;;4.00;99.90;3.90;100023.00;;;;4779775;29;93561;-69
2023/02/02 02:11:36;;;;;;;1.30;0.93;;;4.10;99.90;4.00;100019.00;;;;4777505;29;101342;-70
2023/02/02 02:17:14;;;;;;;8.17;1.43;;;4.10;99.90;4.00;100017.00;;;;4780115;29;93127;-69
2023/02/02 02:27:13;;;;;;;2.53;0.67;;;4.30;99.90;4.10;100021.00;;;;4777853;29;92215;-68
2023/02/02 02:30:27;;;;;;;2.90;1.10;;;4.30;99.90;4.10;100026.00;;;;4777169;29;94954;-69
2023/02/02 02:33:41;;;;;;;3.70;2.10;;;4.40;99.90;4.10;100015.00;;;;4788809;29;111364;-70
2023/02/02 02:36:16;;;;;;;2.50;1.63;;;4.30;99.90;4.20;100021.00;;;;4784464;29;94045;-70
2023/02/02 02:39:03;;;;;;;2.70;0.73;;;4.40;99.90;4.20;100011.00;;;;4763039;29;93110;-69
2023/02/02 02:41:36;;;;;;;1.83;1.23;;;4.40;99.90;4.30;100021.00;;;;4791145;29;93944;-70
2023/02/02 02:44:09;;;;;;;0.60;0.60;;;4.40;99.90;4.30;100005.00;;;;4789562;29;115284;-70
2023/02/02 02:46:36;;;;;;;1.63;0.80;;;4.50;99.90;4.30;100019.00;;;;4782153;29;92952;-70
2023/02/02 02:49:02;;;;;;;2.87;1.07;;;4.50;99.90;4.30;100008.00;;;;4777962;29;108920;-70
2023/02/02 02:51:50;;;;;;;5.73;0.93;;;4.60;99.90;4.30;100004.00;;;;4779907;29;93873;-70
2023/02/02 02:54:27;;;;;;;11.47;1.40;;;4.40;99.90;4.40;100004.00;;;;4779509;29;92139;-70
2023/02/02 02:57:30;;;;;;;3.00;1.33;;;4.60;99.90;4.30;100000.00;;;;4775263;29;101342;-69
2023/02/02 03:00:07;;;;;;;2.87;1.20;;;4.60;99.90;4.40;100004.00;;;;4779062;29;93004;-69
2023/02/02 03:03:11;;;;;;;2.33;0.93;;;4.60;99.90;4.40;100007.00;;;;4779160;29;94469;-70
2023/02/02 03:05:51;;;;;;;2.57;1.33;;;4.60;99.90;4.40;100014.00;;;;4761953;29;93751;-70
2023/02/02 03:08:39;;;;;;;4.03;1.00;;;4.60;99.90;4.40;100004.00;;;;4794244;29;93947;-69
2023/02/02 03:11:07;;;;;;;3.90;0.87;;;4.60;99.90;4.50;100019.00;;;;4779464;29;92946;-70
2023/02/02 03:13:33;;;;;;;5.30;0.97;;;4.60;99.90;4.50;100014.00;;;;4792011;29;116913;-69
2023/02/02 03:15:59;;;;;;;1.30;0.80;;;4.70;99.90;4.50;100027.00;;;;4783220;29;93824;-70
2023/02/02 03:18:29;;;;;;;1.30;0.83;;;4.60;99.90;4.40;100020.00;;;;4781211;29;109222;-71
2023/02/02 03:20:55;;;;;;;4.13;0.90;;;4.70;99.90;4.40;100042.00;;;;4782911;29;92240;-69
2023/02/02 03:23:21;;;;;;;9.07;1.50;;;5.10;99.90;4.40;100041.00;;;;4781002;29;93241;-69
2023/02/02 03:25:47;;;;;;;4.70;1.37;;;4.50;99.90;4.40;100036.00;;;;4778682;29;122246;-70
2023/02/02 03:28:14;;;;;;;7.67;0.93;;;4.50;99.90;4.30;100045.00;;;;4779926;29;95378;-69
2023/02/02 03:30:42;;;;;;;4.10;1.57;;;4.60;99.90;4.30;100050.00;;;;4794053;29;92955;-69
2023/02/02 03:33:10;;;;;;;2.73;1.13;;;4.50;99.90;4.30;100037.00;;;;4777683;29;114360;-69
2023/02/02 03:35:35;;;;;;;4.57;0.80;;;4.50;99.90;4.40;100026.00;;;;4779936;29;93428;-69
2023/02/02 03:38:01;;;;;;;1.60;0.80;;;4.50;99.90;4.40;100037.00;;;;4779146;29;93040;-69
2023/02/02 03:40:27;;;;;;;5.93;1.30;;;4.50;99.90;4.50;100029.00;;;;4783004;29;109959;-69
2023/02/02 03:42:53;;;;;;;2.00;0.80;;;4.60;99.90;4.50;100036.00;;;;4780894;29;123432;-69
2023/02/02 03:45:19;;;;;;;2.90;1.33;;;4.60;99.90;4.50;100042.00;;;;4782887;29;93805;-70
2023/02/02 03:47:44;;;;;;;2.57;1.20;;;4.70;99.90;4.50;100050.00;;;;4781426;29;109953;-70
2023/02/02 03:50:10;;;;;;;1.10;1.00;;;4.70;99.90;4.50;100048.00;;;;4778963;29;107324;-70
2023/02/02 03:52:36;;;;;;;4.63;1.30;;;5.00;99.90;4.50;100039.00;;;;4791188;29;116149;-69
2023/02/02 03:55:02;;;;;;;4.30;1.53;;;4.70;99.90;4.50;100041.00;;;;4777820;29;123405;-69
2023/02/02 03:57:27;;;;;;;4.50;1.77;;;4.70;99.90;4.50;100051.00;;;;4778420;29;98962;-69
2023/02/02 03:59:53;;;;;;;1.23;1.00;;;4.70;99.90;4.50;100050.00;;;;4782485;29;107753;-69
2023/02/02 04:02:19;;;;;;;4.73;1.40;;;4.60;99.90;4.50;100053.00;;;;4778070;29;121809;-70
2023/02/02 04:04:44;;;;;;;2.43;1.20;;;4.70;99.90;4.60;100043.00;;;;4779831;29;123298;-69
2023/02/02 04:07:10;;;;;;;4.33;1.37;;;5.10;99.90;4.60;100038.00;;;;4781349;29;110976;-70
2023/02/02 04:09:36;;;;;;;2.97;0.80;;;4.80;99.90;4.60;100059.00;;;;4783505;29;105824;-70
2023/02/02 04:12:01;;;;;;;2.50;1.03;;;4.70;99.90;4.60;100059.00;;;;4778088;29;124380;-69
2023/02/02 04:14:27;;;;;;;1.30;0.73;;;4.80;99.90;4.60;100060.00;;;;4772427;29;119716;-70
2023/02/02 04:16:53;;;;;;;10.17;1.50;;;4.80;99.90;4.60;100073.00;;;;4792182;29;109007;-70
2023/02/02 04:19:18;;;;;;;6.40;1.23;;;4.80;99.90;4.60;100068.00;;;;4778531;29;106814;-70
2023/02/02 04:21:44;;;;;;;5.47;1.40;;;4.70;99.90;4.60;100075.00;;;;4778088;29;123899;-70
2023/02/02 04:24:11;;;;;;;1.80;1.03;;;4.90;99.90;4.60;100086.00;;;;4780653;29;93748;-69
2023/02/02 04:26:37;;;;;;;6.60;1.23;;;4.80;99.90;4.50;100078.00;;;;4792782;29;93123;-69
2023/02/02 04:29:03;;;;;;;2.03;0.90;;;4.80;99.90;4.50;100082.00;;;;4778920;29;107806;-70
2023/02/02 04:31:29;;;;;;;3.00;1.10;;;4.70;99.90;4.50;100081.00;;;;4782364;29;122247;-69
2023/02/02 04:33:55;;;;;;;3.87;1.30;;;4.70;99.90;4.50;100091.00;;;;4779482;29;92654;-69
2023/02/02 04:36:21;;;;;;;3.50;1.20;;;4.60;99.90;4.50;100094.00;;;;4781193;29;92835;-68
2023/02/02 04:38:51;;;;;;;5.63;1.03;;;4.70;99.90;4.50;100089.00;;;;4782735;29;95436;-69
2023/02/02 04:41:18;;;;;;;5.20;1.67;;;4.70;99.90;4.50;100084.00;;;;4779576;29;103896;-70
2023/02/02 04:43:44;;;;;;;1.43;1.10;;;4.60;99.90;4.40;100101.00;;;;4779397;29;104977;-70
2023/02/02 04:46:10;;;;;;;3.60;1.30;;;4.60;99.90;4.40;100089.00;;;;4780513;29;93059;-70
2023/02/02 04:48:37;;;;;;;2.03;1.10;;;4.60;99.90;4.40;100107.00;;;;4791760;29;99618;-70
2023/02/02 04:51:05;;;;;;;1.17;0.70;;;4.60;99.90;4.50;100118.00;;;;4780343;29;122827;-70
2023/02/02 04:53:31;;;;;;;2.20;1.10;;;4.60;99.90;4.50;100112.00;;;;4776538;29;112925;-70
2023/02/02 04:55:57;;;;;;;3.67;1.17;;;5.40;99.90;4.50;100116.00;;;;4779430;29;111176;-69
2023/02/02 04:58:23;;;;;;;3.30;1.50;;;5.30;99.90;4.50;100114.00;;;;4791085;29;101228;-69
2023/02/02 05:00:49;;;;;;;3.60;1.23;;;4.70;99.90;4.50;100118.00;;;;4779709;29;121912;-70
2023/02/02 05:03:15;;;;;;;8.80;1.47;;;4.70;99.90;4.40;100136.00;;;;4777312;29;123481;-70
2023/02/02 05:05:41;;;;;;;5.53;1.03;;;4.60;99.90;4.40;100134.00;;;;4778312;29;109722;-71
2023/02/02 05:08:08;;;;;;;3.43;1.20;;;4.60;99.90;4.30;100136.00;;;;4780135;29;93162;-69
2023/02/02 05:10:34;;;;;;;7.80;1.60;;;4.50;99.90;4.30;100152.00;;;;4779251;29;93280;-69
2023/02/02 05:12:59;;;;;;;3.87;1.07;;;4.50;99.90;4.30;100154.00;;;;4777959;29;121851;-71
2023/02/02 05:15:25;;;;;;;1.50;1.37;;;4.50;99.90;4.20;100143.00;;;;4780968;29;109920;-69
2023/02/02 05:17:51;;;;;;;2.93;1.50;;;4.50;99.90;4.20;100137.00;;;;4778595;29;108872;-69
2023/02/02 05:20:17;;;;;;;8.50;2.10;;;4.40;99.90;4.20;100144.00;;;;4777313;29;102646;-70
2023/02/02 05:22:42;;;;;;;2.43;1.60;;;4.50;99.90;4.20;100154.00;;;;4782404;29;113985;-71
2023/02/02 05:25:09;;;;;;;10.07;1.33;;;4.40;99.90;4.20;100159.00;;;;4776684;29;108157;-70
2023/02/02 05:27:35;;;;;;;5.83;1.50;;;4.50;99.90;4.20;100166.00;;;;4778355;29;109492;-69
2023/02/02 05:30:00;;;;;;;6.60;1.03;;;4.40;99.90;4.20;100158.00;;;;4779453;29;95255;-70
2023/02/02 05:32:28;;;;;;;2.67;1.13;;;4.40;99.90;4.20;100156.00;;;;4780464;29;118379;-70
2023/02/02 05:34:54;;;;;;;7.00;2.10;;;4.40;99.90;4.30;100167.00;;;;4780068;29;93007;-70
2023/02/02 05:37:19;;;;;;;0.70;0.60;;;4.40;99.90;4.30;100179.00;;;;4779336;29;109076;-70
2023/02/02 05:39:45;;;;;;;6.90;1.37;;;4.40;99.90;4.30;100166.00;;;;4778364;29;122233;-70
2023/02/02 05:42:11;;;;;;;4.83;1.00;;;4.40;99.90;4.30;100175.00;;;;4779291;29;101930;-70
2023/02/02 05:44:36;;;;;;;6.73;1.20;;;4.50;99.90;4.30;100174.00;;;;4780470;29;110210;-71
2023/02/02 05:47:02;;;;;;;3.63;1.17;;;4.50;99.90;4.30;100170.00;;;;4779390;29;108894;-71
2023/02/02 05:49:28;;;;;;;1.53;0.93;;;4.50;99.90;4.20;100169.00;;;;4777899;29;121061;-72
2023/02/02 05:51:56;;;;;;;2.27;0.97;;;4.80;99.90;4.20;100169.00;;;;4780521;29;93774;-70
2023/02/02 05:54:22;;;;;;;3.57;1.20;;;4.60;99.90;4.20;100178.00;;;;4791531;29;94403;-72
2023/02/02 05:56:51;;;;;;;5.07;1.27;;;4.50;99.90;4.30;100179.00;;;;4778104;29;102417;-72
2023/02/02 05:59:18;;;;;;;2.93;1.47;;;4.40;99.90;4.30;100183.00;;;;4777391;29;93448;-70
2023/02/02 06:01:45;;;;;;;3.40;1.00;;;4.50;99.90;4.30;100185.00;;;;4779058;29;123146;-70
2023/02/02 06:04:10;;;;;;;1.37;1.07;;;4.50;99.90;4.30;100181.00;;;;4779616;29;93042;-71
2023/02/02 06:06:37;;;;;;;4.40;1.00;;;4.50;99.90;4.40;100167.00;;;;4778666;29;108984;-71
2023/02/02 06:09:05;;;;;;;4.30;1.33;;;4.60;99.90;4.40;100189.00;;;;4778104;29;94102;-71
2023/02/02 06:11:30;;;;;;;4.30;1.70;;;4.50;99.90;4.40;100202.00;;;;4776254;29;93406;-72
2023/02/02 06:13:56;;;;;;;3.10;1.03;;;4.60;99.90;4.40;100194.00;;;;4795190;29;109782;-71
2023/02/02 06:16:23;;;;;;;2.30;1.43;;;4.60;99.90;4.50;100199.00;;;;4778099;29;109219;-70
2023/02/02 06:18:48;;;;;;;3.50;0.83;;;4.60;99.90;4.50;100204.00;;;;4779254;29;114440;-70
2023/02/02 06:21:14;;;;;;;6.67;1.73;;;4.70;99.90;4.50;100217.00;;;;4780833;29;93893;-71
2023/02/02 06:23:44;;;;;;;2.20;0.63;;;4.70;99.90;4.50;100215.00;;;;4779283;29;107160;-73
2023/02/02 06:26:11;;;;;;;3.73;1.20;;;4.70;99.90;4.50;100225.00;;;;4779740;29;93087;-72
2023/02/02 06:28:37;;;;;;;6.30;1.13;;;4.60;99.90;4.40;100236.00;;;;4779150;29;108445;-70
2023/02/02 06:31:08;;;;;;;4.03;1.37;;;4.70;99.90;4.40;100244.00;;;;4777966;29;121653;-72
2023/02/02 06:33:34;;;;;;;1.53;0.77;;;5.30;99.90;4.40;100240.00;;;;4777440;29;92928;-75
2023/02/02 06:36:01;;;;;;;10.43;1.00;;;4.50;99.90;4.40;100236.00;;;;4779505;29;92402;-73
2023/02/02 06:38:27;;;;;;;1.23;1.13;;;4.50;99.90;4.30;100244.00;;;;4775502;29;104655;-73
2023/02/02 06:40:53;;;;;;;2.73;1.40;;;4.60;99.90;4.40;100261.00;;;;4778452;29;93379;-74
2023/02/02 06:43:18;;;;;;;3.43;1.00;;;4.60;99.90;4.40;100269.00;;;;4776856;29;98438;-71
2023/02/02 06:45:44;;;;;;;1.33;0.80;;;4.60;99.90;4.30;100263.00;;;;4780183;29;92777;-70
2023/02/02 06:48:10;;;;;;;3.13;0.80;;;4.50;99.90;4.30;100288.00;;;;4774785;29;123427;-72
2023/02/02 06:50:37;;;;;;;4.57;1.37;;;4.50;99.90;4.30;100284.00;;;;4789082;29;92968;-81
2023/02/02 06:53:03;;;;;;;0.97;0.70;;;4.50;99.90;4.20;100272.00;;;;4788110;29;92999;-76
2023/02/02 06:55:29;;;;;;;3.80;1.27;;;4.50;99.90;4.20;100287.00;;;;4761987;29;93298;-76
2023/02/02 06:57:59;;;;;;;3.00;0.80;;;4.40;99.90;4.10;100286.00;;;;4790463;29;107257;-78
2023/02/02 07:00:26;;;;;;;2.50;1.63;;;4.30;99.90;4.10;100286.00;;;;4785935;29;95494;-77
2023/02/02 07:02:52;;;;;;;8.93;1.33;;;4.30;99.90;4.10;100315.00;;;;4778154;29;92794;-75
2023/02/02 07:05:19;;;;;;;1.33;1.00;;;4.50;99.90;4.10;100309.00;;;;4778390;29;108884;-75
2023/02/02 07:07:44;;;;;;;1.13;0.80;;;4.30;99.90;4.00;100319.00;;;;4774996;29;95154;-80
2023/02/02 07:10:11;;;;;;;2.27;1.23;;;5.70;99.90;3.90;100315.00;;;;4778021;29;111996;-68
2023/02/02 07:12:37;;;;;;;2.40;1.17;;;4.20;99.90;3.90;100308.00;;;;4775601;29;109325;-72
2023/02/02 07:15:03;;;;;;;1.37;0.97;;;4.10;99.90;3.70;100316.00;;;;4791446;29;93368;-70
2023/02/02 07:17:29;;;;;;;2.53;0.80;;;4.00;99.90;3.70;100315.00;;;;4774033;29;118180;-72
2023/02/02 07:19:55;;;;;;;1.30;1.00;;;3.90;99.90;3.70;100313.00;;;;4777087;29;122693;-69
2023/02/02 07:22:20;;;;;;;0.70;0.70;;;3.90;99.90;3.70;100306.00;;;;4778566;29;108789;-71
2023/02/02 07:24:46;;;;;;;3.63;1.83;;;3.90;99.90;3.70;100330.00;;;;4779115;29;108375;-73
2023/02/02 07:27:12;;;;;;;3.57;1.47;;;4.20;99.90;3.70;100335.00;;;;4777326;29;122996;-72
2023/02/02 07:29:38;;;;;;;0.80;0.60;;;3.90;99.90;3.80;100335.00;;;;4776229;29;122497;-72
2023/02/02 07:32:04;;;;;;;5.40;1.30;;;3.90;99.90;3.80;100339.00;;;;4777635;29;109049;-69
2023/02/02 07:34:30;;;;;;;1.63;0.90;;;3.90;99.90;3.80;100337.00;;;;4789638;29;93229;-69
2023/02/02 07:36:56;;;;;;;4.37;1.43;;;3.90;99.90;3.80;100337.00;;;;4777279;29;123208;-70
2023/02/02 07:39:22;;;;;;;1.50;1.10;;;4.00;99.90;3.80;100349.00;;;;4778858;29;119957;-70
2023/02/02 07:41:48;;;;;;;4.13;1.03;;;4.10;99.90;3.90;100332.00;;;;4778113;29;103431;-69
2023/02/02 07:44:15;;;;;;;3.03;1.37;;;4.00;99.90;3.90;100345.00;;;;4776582;29;94735;-68
2023/02/02 07:46:42;;;;;;;4.50;1.30;;;4.00;99.90;3.90;100340.00;;;;4778276;29;93980;-70
2023/02/02 07:49:16;;;;;;;2.23;1.30;;;4.10;99.90;3.90;100345.00;;;;4777332;29;114510;-68
2023/02/02 07:51:42;;;;;;;0.80;0.70;;;4.10;99.90;3.90;100358.00;;;;4778128;29;92828;-70
2023/02/02 07:54:09;;;;;;;1.30;0.47;;;4.10;99.90;3.90;100352.00;;;;4779562;29;93055;-72
2023/02/02 07:56:34;;;;;;;2.43;1.40;;;4.20;99.90;3.90;100357.00;;;;4778788;29;94477;-70
2023/02/02 07:59:00;;;;;;;8.53;1.40;;;4.10;99.90;3.90;100352.00;;;;4780519;29;122515;-70
2023/02/02 08:01:27;;;;;;;2.13;1.10;;;4.10;99.90;3.90;100360.00;;;;4779421;29;110123;-71
2023/02/02 08:03:55;;;;;;;1.60;1.17;;;4.20;99.90;3.90;100368.00;;;;4781892;29;93231;-70
2023/02/02 08:06:28;;;;;;;4.13;1.20;;;4.70;99.90;3.90;100366.00;;;;4781774;29;93332;-70
2023/02/02 08:08:54;;;;;;;4.90;2.00;;;4.20;99.90;4.00;100378.00;;;;4779891;29;93688;-70
2023/02/02 08:11:22;;;;;;;1.40;0.83;;;4.10;99.90;4.00;100380.00;;;;4781428;29;102341;-70
2023/02/02 08:13:51;;;;;;;2.83;0.97;;;4.20;99.90;4.00;100385.00;;;;4781736;29;92335;-70
2023/02/02 08:16:17;;;;;;;5.57;1.87;;;4.20;99.90;4.00;100386.00;;;;4781461;29;93619;-72
2023/02/02 08:18:42;;;;;;;2.63;1.50;;;4.10;99.90;4.00;100393.00;;;;4778120;29;107046;-70
2023/02/02 08:21:09;;;;;;;2.63;1.70;;;4.20;99.90;4.00;100404.00;;;;4780830;29;110089;-70
2023/02/02 08:23:37;;;;;;;2.20;1.43;;;4.20;99.90;4.10;100424.00;;;;4781451;29;92944;-69
2023/02/02 08:26:10;;;;;;;9.30;1.90;;;4.20;99.90;4.00;100421.00;;;;4775720;29;113776;-72
2023/02/02 08:28:37;;;;;;;2.00;1.00;;;4.20;99.90;4.10;100428.00;;;;4780227;29;93072;-70
2023/02/02 08:31:20;;;;;;;2.23;1.27;;;4.20;99.90;4.10;100444.00;;;;4779286;29;92797;-70
2023/02/02 08:33:46;;;;;;;4.30;1.23;;;4.30;99.90;4.00;100446.00;;;;4781209;29;93073;-67
2023/02/02 08:36:14;;;;;;;1.90;1.17;;;4.20;99.90;4.00;100449.00;;;;4779067;29;122621;-69
2023/02/02 08:38:40;;;;;;;1.23;0.60;;;4.20;99.90;3.90;100437.00;;;;4780663;29;93145;-67
2023/02/02 08:41:08;;;;;;;1.17;1.07;;;4.20;99.90;3.90;100427.00;;;;4792606;29;92865;-66
2023/02/02 08:43:34;;;;;;;2.10;0.60;;;4.10;99.90;3.90;100432.00;;;;4781069;29;93022;-70
2023/02/02 08:46:01;;;;;;;0.40;0.40;;;4.10;99.90;3.90;100447.00;;;;4778748;29;110534;-67
2023/02/02 08:48:26;;;;;;;0.77;0.60;;;4.10;99.90;3.90;100447.00;;;;4781898;29;95920;-69
2023/02/02 08:50:57;;;;;;;1.27;0.90;;;4.10;99.90;3.90;100436.00;;;;4780880;29;112010;-68
2023/02/02 08:53:24;;;;;;;1.30;0.60;;;4.10;99.90;3.90;100438.00;;;;4780003;29;92913;-69
2023/02/02 08:56:06;;;;;;;1.40;0.90;;;4.00;99.90;3.90;100439.00;;;;4777466;29;93513;-70
2023/02/02 08:58:32;;;;;;;0.53;0.53;;;5.00;99.90;3.90;100432.00;;;;4790979;29;92936;-72
2023/02/02 09:01:15;;;;;;;1.20;0.60;;;4.10;99.90;3.90;100443.00;;;;4778088;29;101067;-72
2023/02/02 09:03:41;;;;;;;3.87;1.80;;;4.10;99.90;4.00;100445.00;;;;4792236;29;92291;-71
2023/02/02 09:06:10;;;;;;;3.10;1.40;;;4.10;99.90;4.00;100439.00;;;;4778082;29;94180;-70
2023/02/02 09:08:36;;;;;;;3.33;1.00;;;4.20;99.90;4.00;100452.00;;;;4778683;29;95872;-73
2023/02/02 09:11:08;;;;;;;0.80;0.70;;;4.20;99.90;4.10;100453.00;;;;4777252;29;93909;-70
2023/02/02 09:13:35;;;;;;;1.83;1.07;;;4.20;99.90;4.10;100449.00;;;;4778680;29;93014;-70
2023/02/02 09:16:03;;;;;;;3.60;0.93;;;4.40;99.90;4.10;100452.00;;;;4778733;29;93474;-71
2023/02/02 09:18:29;;;;;;;4.03;1.50;;;4.30;99.90;4.20;100461.00;;;;4779571;29;99428;-71
2023/02/02 09:20:59;;;;;;;5.43;1.30;;;4.40;99.90;4.20;100469.00;;;;4781038;29;102402;-73
2023/02/02 09:23:26;;;;;;;0.80;0.70;;;4.70;99.90;4.20;100476.00;;;;4781513;29;93185;-71
2023/02/02 09:25:51;;;;;;;1.10;0.50;;;4.40;99.90;4.30;100480.00;;;;4778091;29;93078;-72
2023/02/02 09:28:17;;;;;;;2.73;0.90;;;4.50;99.90;4.30;100478.00;;;;4780149;29;125922;-74
2023/02/02 09:30:43;;;;;;;0.27;0.27;;;4.50;99.90;4.40;100489.00;;;;4779927;29;110412;-73
2023/02/02 09:33:08;;;;;;;0.63;0.40;;;4.50;99.90;4.40;100490.00;;;;4777665;29;108415;-74
2023/02/02 09:35:34;;;;;;;2.10;0.63;;;4.60;99.90;4.40;100496.00;;;;4778712;29;94212;-74
2023/02/02 09:38:00;;;;;;;0.33;0.33;;;4.60;99.90;4.40;100485.00;;;;4778866;29;123558;-71
2023/02/02 09:40:29;;;;;;;4.97;0.77;;;4.60;99.90;4.40;100493.00;;;;4780358;29;111355;-70
2023/02/02 09:43:21;;;;;;;2.43;1.10;;;4.60;99.90;4.30;100491.00;;;;4795732;29;92824;-70
2023/02/02 09:46:00;;;;;;;0.97;0.67;;;4.50;99.90;4.40;100487.00;;;;4780240;29;93436;-71
2023/02/02 09:48:50;;;;;;;11.37;1.30;;;4.50;99.90;4.70;100495.00;;;;4789174;29;94340;-71
2023/02/02 09:51:20;;;;;;;5.83;1.10;;;4.70;99.90;4.90;100505.00;;;;4778522;29;93034;-71
2023/02/02 09:53:55;;;;;;;1.53;1.07;;;5.00;99.90;5.00;100498.00;;;;4789636;29;101212;-71
2023/02/02 09:56:27;;;;;;;3.40;1.30;;;5.10;99.90;5.00;100506.00;;;;4778366;29;113212;-72
2023/02/02 09:58:56;;;;;;;3.23;1.20;;;5.20;99.90;5.00;100501.00;;;;4780117;29;93168;-73
2023/02/02 10:01:35;;;;;;;4.57;1.33;;;5.20;99.90;5.00;100504.00;;;;4777795;29;95432;-71
2023/02/02 10:04:18;;;;;;;4.00;1.50;;;5.10;99.90;5.00;100506.00;;;;4778818;29;93069;-73
2023/02/02 10:06:48;;;;;;;4.83;1.27;;;5.20;99.90;5.00;100516.00;;;;4792708;29;93167;-71
2023/02/02 10:09:49;;;;;;;2.40;1.10;;;5.10;99.90;5.00;100512.00;;;;4778464;29;93189;-72
2023/02/02 10:12:55;;;;;;;0.47;0.47;;;5.20;99.90;5.00;100511.00;;;;4792070;29;94296;-74
2023/02/02 10:15:41;;;;;;;3.03;1.07;;;5.20;99.90;5.00;100519.00;;;;4775907;29;93900;-72
2023/02/02 10:18:39;;;;;;;1.23;1.10;;;5.30;99.90;4.90;100514.00;;;;4791166;29;93564;-71
2023/02/02 10:21:42;;;;;;;3.77;1.27;;;5.20;99.90;4.90;100517.00;;;;4779987;29;113174;-70
2023/02/02 10:24:24;;;;;;;5.20;1.47;;;5.10;99.90;4.90;100521.00;;;;4777946;29;101748;-74
2023/02/02 10:26:54;;;;;;;4.07;1.40;;;5.10;99.90;4.90;100510.00;;;;4779138;29;93114;-71
2023/02/02 10:29:38;;;;;;;5.87;1.30;;;5.10;99.90;4.90;100514.00;;;;4788868;29;117293;-73
2023/02/02 10:32:24;;;;;;;4.63;1.53;;;5.10;99.90;5.00;100513.00;;;;4781027;29;93916;-71
2023/02/02 10:34:55;;;;;;;3.57;1.20;;;5.20;99.90;5.10;100508.00;;;;4781343;29;93209;-73
2023/02/02 10:38:17;;;;;;;1.80;0.90;;;5.10;99.90;5.20;100522.00;;;;4792873;29;93065;-71
2023/02/02 10:41:09;;;;;;;5.77;1.63;;;5.40;99.90;5.30;100519.00;;;;4757125;29;93162;-72
2023/02/02 10:43:58;;;;;;;1.90;0.67;;;5.80;99.90;5.30;100514.00;;;;4754975;29;104483;-73
2023/02/02 10:46:32;;;;;;;9.30;1.03;;;5.40;99.90;5.30;100512.00;;;;4774584;29;92942;-70
2023/02/02 10:49:20;;;;;;;2.70;1.57;;;6.20;99.90;5.30;100506.00;;;;4794250;29;92743;-71
2023/02/02 10:52:17;;;;;;;3.27;0.90;;;5.40;99.90;5.30;100507.00;;;;4777799;29;114418;-69
2023/02/02 10:54:57;;;;;;;1.57;0.90;;;5.60;99.90;5.40;100513.00;;;;4776199;29;92752;-68
2023/02/02 10:58:05;;;;;;;1.43;0.90;;;5.60;99.90;5.50;100512.00;;;;4779384;29;93826;-69
2023/02/02 11:00:46;;;;;;;7.70;1.77;;;5.70;99.90;5.50;100520.00;;;;4778606;29;92925;-72
2023/02/02 11:03:15;;;;;;;5.90;1.63;;;5.70;99.90;5.60;100513.00;;;;4777463;29;93110;-71
2023/02/02 11:08:42;;;;;;;2.77;1.17;;;5.80;99.90;5.70;100533.00;;;;4776779;29;92919;-71
2023/02/02 11:11:23;;;;;;;1.53;0.83;;;5.80;99.90;5.70;100533.00;;;;4777284;29;102797;-70
2023/02/02 11:13:53;;;;;;;5.50;1.13;;;6.00;99.90;5.70;100544.00;;;;4759425;29;95234;-73
2023/02/02 11:16:23;;;;;;;1.13;0.73;;;6.50;99.90;5.60;100544.00;;;;4792315;29;93970;-73
2023/02/02 11:18:48;;;;;;;6.43;1.00;;;5.80;99.90;5.60;100547.00;;;;4777224;29;92755;-72
2023/02/02 11:21:26;;;;;;;1.03;0.57;;;6.40;99.90;5.50;100555.00;;;;4778293;29;108991;-72
2023/02/02 11:24:45;;;;;;;4.53;0.50;;;5.70;99.90;5.20;100552.00;;;;4760609;29;93944;-70